sensor_id;sensor_type;location;lat;lon;timestamp;temperature;humidity
18777;DHT22;9517;51.174;4.160;2023-04-16T00:00:39;9.00;99.90
18777;DHT22;9517;51.174;4.160;2023-04-16T00:03:07;9.00;99.90
18777;DHT22;9517;51.174;4.160;2023-04-16T00:05:34;9.00;99.90
18777;DHT22;9517;51.174;4.160;2023-04-16T00:08:02;9.10;99.90
18777;DHT22;9517;51.174;4.160;2023-04-16T00:10:29;9.10;99.90
18777;DHT22;9517;51.174;4.160;2023-04-16T00:12:56;9.10;99.90
18777;DHT22;9517;51.174;4.160;2023-04-16T00:15:23;8.90;99.90
18777;DHT22;9517;51.174;4.160;2023-04-16T00:17:50;9.00;99.90
18777;DHT22;9517;51.174;4.160;2023-04-16T00:20:19;9.00;99.90
18777;DHT22;9517;51.174;4.160;2023-04-16T00:22:47;9.00;99.90
18777;DHT22;9517;51.174;4.160;2023-04-16T00:25:14;8.90;99.90
18777;DHT22;9517;51.174;4.160;2023-04-16T00:27:41;8.90;99.90
18777;DHT22;9517;51.174;4.160;2023-04-16T00:30:08;8.90;99.90
18777;DHT22;9517;51.174;4.160;2023-04-16T00:32:38;8.90;99.90
18777;DHT22;9517;51.174;4.160;2023-04-16T00:35:06;8.90;99.90
18777;DHT22;9517;51.174;4.160;2023-04-16T00:37:35;8.90;99.90
18777;DHT22;9517;51.174;4.160;2023-04-16T00:40:03;8.80;99.90
18777;DHT22;9517;51.174;4.160;2023-04-16T00:42:30;8.80;99.90
18777;DHT22;9517;51.174;4.160;2023-04-16T00:44:57;8.80;99.90
18777;DHT22;9517;51.174;4.160;2023-04-16T00:47:24;8.90;99.90
18777;DHT22;9517;51.174;4.160;2023-04-16T00:49:52;8.90;99.90
18777;DHT22;9517;51.174;4.160;2023-04-16T00:52:20;8.90;99.90
18777;DHT22;9517;51.174;4.160;2023-04-16T00:54:48;8.90;99.90
18777;DHT22;9517;51.174;4.160;2023-04-16T00:57:16;8.90;99.90
18777;DHT22;9517;51.174;4.160;2023-04-16T00:59:45;9.00;99.90
18777;DHT22;9517;51.174;4.160;2023-04-16T01:02:12;8.90;99.90
18777;DHT22;9517;51.174;4.160;2023-04-16T01:04:40;8.90;99.90
18777;DHT22;9517;51.174;4.160;2023-04-16T01:07:07;8.90;99.90
18777;DHT22;9517;51.174;4.160;2023-04-16T01:09:34;8.80;99.90
18777;DHT22;9517;51.174;4.160;2023-04-16T01:12:03;8.90;99.90
18777;DHT22;9517;51.174;4.160;2023-04-16T01:14:30;8.90;99.90
18777;DHT22;9517;51.174;4.160;2023-04-16T01:17:00;9.00;99.90
18777;DHT22;9517;51.174;4.160;2023-04-16T01:19:28;8.80;99.90
18777;DHT22;9517;51.174;4.160;2023-04-16T01:21:57;8.80;99.90
18777;DHT22;9517;51.174;4.160;2023-04-16T01:24:24;8.80;99.90
18777;DHT22;9517;51.174;4.160;2023-04-16T01:26:52;8.90;99.90
18777;DHT22;9517;51.174;4.160;2023-04-16T01:29:19;9.00;99.90
18777;DHT22;9517;51.174;4.160;2023-04-16T01:31:46;9.00;99.90
18777;DHT22;9517;51.174;4.160;2023-04-16T01:34:13;8.80;99.90
18777;DHT22;9517;51.174;4.160;2023-04-16T01:36:40;8.90;99.90
18777;DHT22;9517;51.174;4.160;2023-04-16T01:39:08;9.00;99.90
18777;DHT22;9517;51.174;4.160;2023-04-16T01:41:38;8.90;99.90
18777;DHT22;9517;51.174;4.160;2023-04-16T01:44:05;8.90;99.90
18777;DHT22;9517;51.174;4.160;2023-04-16T01:46:34;8.90;99.90
18777;DHT22;9517;51.174;4.160;2023-04-16T01:49:01;8.90;99.90
18777;DHT22;9517;51.174;4.160;2023-04-16T01:51:30;8.90;99.90
18777;DHT22;9517;51.174;4.160;2023-04-16T01:53:57;9.00;99.90
18777;DHT22;9517;51.174;4.160;2023-04-16T01:56:26;8.80;99.90
18777;DHT22;9517;51.174;4.160;2023-04-16T01:58:53;8.80;99.90
18777;DHT22;9517;51.174;4.160;2023-04-16T02:01:20;8.80;99.90
18777;DHT22;9517;51.174;4.160;2023-04-16T02:03:47;9.00;99.90
18777;DHT22;9517;51.174;4.160;2023-04-16T02:06:15;9.00;99.90
18777;DHT22;9517;51.174;4.160;2023-04-16T02:08:42;9.10;99.90
18777;DHT22;9517;51.174;4.160;2023-04-16T02:11:09;9.00;99.90
18777;DHT22;9517;51.174;4.160;2023-04-16T02:13:37;9.00;99.90
18777;DHT22;9517;51.174;4.160;2023-04-16T02:16:05;9.00;99.90
18777;DHT22;9517;51.174;4.160;2023-04-16T02:18:32;9.00;99.90
18777;DHT22;9517;51.174;4.160;2023-04-16T02:20:59;8.90;99.90
18777;DHT22;9517;51.174;4.160;2023-04-16T02:23:27;8.90;99.90
18777;DHT22;9517;51.174;4.160;2023-04-16T02:25:54;9.10;99.90
18777;DHT22;9517;51.174;4.160;2023-04-16T02:28:21;9.00;99.90
18777;DHT22;9517;51.174;4.160;2023-04-16T02:30:50;9.00;99.90
18777;DHT22;9517;51.174;4.160;2023-04-16T02:33:17;8.80;99.90
18777;DHT22;9517;51.174;4.160;2023-04-16T02:35:45;8.90;99.90
18777;DHT22;9517;51.174;4.160;2023-04-16T02:38:13;8.90;99.90
18777;DHT22;9517;51.174;4.160;2023-04-16T02:40:40;9.00;99.90
18777;DHT22;9517;51.174;4.160;2023-04-16T02:43:08;8.90;99.90
18777;DHT22;9517;51.174;4.160;2023-04-16T02:45:35;8.80;99.90
18777;DHT22;9517;51.174;4.160;2023-04-16T02:48:04;8.60;99.90
18777;DHT22;9517;51.174;4.160;2023-04-16T02:50:33;8.70;99.90
18777;DHT22;9517;51.174;4.160;2023-04-16T02:53:00;8.70;99.90
18777;DHT22;9517;51.174;4.160;2023-04-16T02:55:28;8.60;99.90
18777;DHT22;9517;51.174;4.160;2023-04-16T02:57:55;8.60;99.90
18777;DHT22;9517;51.174;4.160;2023-04-16T03:00:22;8.70;99.90
18777;DHT22;9517;51.174;4.160;2023-04-16T03:02:49;8.70;99.90
18777;DHT22;9517;51.174;4.160;2023-04-16T03:05:18;8.60;99.90
18777;DHT22;9517;51.174;4.160;2023-04-16T03:07:46;8.60;99.90
18777;DHT22;9517;51.174;4.160;2023-04-16T03:10:15;8.60;99.90
18777;DHT22;9517;51.174;4.160;2023-04-16T03:12:42;8.60;99.90
18777;DHT22;9517;51.174;4.160;2023-04-16T03:15:10;8.70;99.90
18777;DHT22;9517;51.174;4.160;2023-04-16T03:17:37;8.70;99.90
18777;DHT22;9517;51.174;4.160;2023-04-16T03:20:05;8.70;99.90
18777;DHT22;9517;51.174;4.160;2023-04-16T03:22:35;8.70;99.90
18777;DHT22;9517;51.174;4.160;2023-04-16T03:25:02;8.60;99.90
18777;DHT22;9517;51.174;4.160;2023-04-16T03:27:29;8.60;99.90
18777;DHT22;9517;51.174;4.160;2023-04-16T03:29:58;8.60;99.90
18777;DHT22;9517;51.174;4.160;2023-04-16T03:32:25;8.70;99.90
18777;DHT22;9517;51.174;4.160;2023-04-16T03:34:52;8.80;99.90
18777;DHT22;9517;51.174;4.160;2023-04-16T03:37:19;8.80;99.90
18777;DHT22;9517;51.174;4.160;2023-04-16T03:39:49;8.70;99.90
18777;DHT22;9517;51.174;4.160;2023-04-16T03:42:16;8.80;99.90
18777;DHT22;9517;51.174;4.160;2023-04-16T03:44:43;8.90;99.90
18777;DHT22;9517;51.174;4.160;2023-04-16T03:47:10;8.80;99.90
18777;DHT22;9517;51.174;4.160;2023-04-16T03:49:37;8.80;99.90
18777;DHT22;9517;51.174;4.160;2023-04-16T03:52:04;8.80;99.90
18777;DHT22;9517;51.174;4.160;2023-04-16T03:54:32;8.90;99.90
18777;DHT22;9517;51.174;4.160;2023-04-16T03:57:00;8.90;99.90
18777;DHT22;9517;51.174;4.160;2023-04-16T03:59:28;8.80;99.90
18777;DHT22;9517;51.174;4.160;2023-04-16T04:01:55;9.00;99.90
18777;DHT22;9517;51.174;4.160;2023-04-16T04:04:22;8.90;99.90
18777;DHT22;9517;51.174;4.160;2023-04-16T04:06:49;8.90;99.90
18777;DHT22;9517;51.174;4.160;2023-04-16T04:09:16;9.00;99.90
18777;DHT22;9517;51.174;4.160;2023-04-16T04:11:44;9.00;99.90
18777;DHT22;9517;51.174;4.160;2023-04-16T04:14:12;8.90;99.90
18777;DHT22;9517;51.174;4.160;2023-04-16T04:16:40;8.80;99.90
18777;DHT22;9517;51.174;4.160;2023-04-16T04:19:07;8.80;99.90
18777;DHT22;9517;51.174;4.160;2023-04-16T04:21:34;8.80;99.90
18777;DHT22;9517;51.174;4.160;2023-04-16T04:24:02;8.80;99.90
18777;DHT22;9517;51.174;4.160;2023-04-16T04:26:29;8.70;99.90
18777;DHT22;9517;51.174;4.160;2023-04-16T04:28:56;8.70;99.90
18777;DHT22;9517;51.174;4.160;2023-04-16T04:31:24;8.70;99.90
18777;DHT22;9517;51.174;4.160;2023-04-16T04:33:52;8.70;99.90
18777;DHT22;9517;51.174;4.160;2023-04-16T04:36:19;8.80;99.90
18777;DHT22;9517;51.174;4.160;2023-04-16T04:38:46;8.80;99.90
18777;DHT22;9517;51.174;4.160;2023-04-16T04:41:13;8.80;99.90
18777;DHT22;9517;51.174;4.160;2023-04-16T04:43:40;8.80;99.90
18777;DHT22;9517;51.174;4.160;2023-04-16T04:46:07;8.80;99.90
18777;DHT22;9517;51.174;4.160;2023-04-16T04:48:36;8.80;99.90
18777;DHT22;9517;51.174;4.160;2023-04-16T04:51:03;8.80;99.90
18777;DHT22;9517;51.174;4.160;2023-04-16T04:53:30;8.80;99.90
18777;DHT22;9517;51.174;4.160;2023-04-16T04:55:58;8.90;99.90
18777;DHT22;9517;51.174;4.160;2023-04-16T04:58:25;8.80;99.90
18777;DHT22;9517;51.174;4.160;2023-04-16T05:00:52;8.80;99.90
18777;DHT22;9517;51.174;4.160;2023-04-16T05:03:20;8.70;99.90
18777;DHT22;9517;51.174;4.160;2023-04-16T05:05:49;8.70;99.90
18777;DHT22;9517;51.174;4.160;2023-04-16T05:08:16;8.70;99.90
18777;DHT22;9517;51.174;4.160;2023-04-16T05:10:43;8.70;99.90
18777;DHT22;9517;51.174;4.160;2023-04-16T05:13:10;8.70;99.90
18777;DHT22;9517;51.174;4.160;2023-04-16T05:15:38;8.80;99.90
18777;DHT22;9517;51.174;4.160;2023-04-16T05:18:06;8.90;99.90
18777;DHT22;9517;51.174;4.160;2023-04-16T05:20:33;8.80;99.90
18777;DHT22;9517;51.174;4.160;2023-04-16T05:23:03;8.80;99.90
18777;DHT22;9517;51.174;4.160;2023-04-16T05:25:30;8.70;99.90
18777;DHT22;9517;51.174;4.160;2023-04-16T05:27:57;8.60;99.90
18777;DHT22;9517;51.174;4.160;2023-04-16T05:30:24;8.60;99.90
18777;DHT22;9517;51.174;4.160;2023-04-16T05:32:51;8.70;99.90
18777;DHT22;9517;51.174;4.160;2023-04-16T05:35:18;8.60;99.90
18777;DHT22;9517;51.174;4.160;2023-04-16T05:37:45;8.50;99.90
18777;DHT22;9517;51.174;4.160;2023-04-16T05:40:14;8.50;99.90
18777;DHT22;9517;51.174;4.160;2023-04-16T05:42:41;8.70;99.90
18777;DHT22;9517;51.174;4.160;2023-04-16T05:45:09;8.80;99.90
18777;DHT22;9517;51.174;4.160;2023-04-16T05:47:36;8.80;99.90
18777;DHT22;9517;51.174;4.160;2023-04-16T05:50:04;8.80;99.90
18777;DHT22;9517;51.174;4.160;2023-04-16T05:52:31;8.70;99.90
18777;DHT22;9517;51.174;4.160;2023-04-16T05:54:58;8.70;99.90
18777;DHT22;9517;51.174;4.160;2023-04-16T05:57:27;8.70;99.90
18777;DHT22;9517;51.174;4.160;2023-04-16T05:59:54;8.80;99.90
18777;DHT22;9517;51.174;4.160;2023-04-16T06:02:21;8.90;99.90
18777;DHT22;9517;51.174;4.160;2023-04-16T06:04:48;9.10;99.90
18777;DHT22;9517;51.174;4.160;2023-04-16T06:07:16;9.20;99.90
18777;DHT22;9517;51.174;4.160;2023-04-16T06:09:44;9.00;99.90
18777;DHT22;9517;51.174;4.160;2023-04-16T06:12:11;9.00;99.90
18777;DHT22;9517;51.174;4.160;2023-04-16T06:14:39;8.90;99.90
18777;DHT22;9517;51.174;4.160;2023-04-16T06:17:06;8.90;99.90
18777;DHT22;9517;51.174;4.160;2023-04-16T06:19:33;9.00;99.90
18777;DHT22;9517;51.174;4.160;2023-04-16T06:22:01;9.20;99.90
18777;DHT22;9517;51.174;4.160;2023-04-16T06:24:29;9.10;99.90
18777;DHT22;9517;51.174;4.160;2023-04-16T06:26:59;8.90;99.90
18777;DHT22;9517;51.174;4.160;2023-04-16T06:29:27;8.90;99.90
18777;DHT22;9517;51.174;4.160;2023-04-16T06:31:55;8.90;99.90
18777;DHT22;9517;51.174;4.160;2023-04-16T06:34:23;8.90;99.90
18777;DHT22;9517;51.174;4.160;2023-04-16T06:36:50;8.90;99.90
18777;DHT22;9517;51.174;4.160;2023-04-16T06:39:17;8.90;99.90
18777;DHT22;9517;51.174;4.160;2023-04-16T06:41:46;8.90;99.90
18777;DHT22;9517;51.174;4.160;2023-04-16T06:44:13;9.00;99.90
18777;DHT22;9517;51.174;4.160;2023-04-16T06:46:40;8.90;99.90
18777;DHT22;9517;51.174;4.160;2023-04-16T06:49:09;9.00;99.90
18777;DHT22;9517;51.174;4.160;2023-04-16T06:51:36;9.00;99.90
18777;DHT22;9517;51.174;4.160;2023-04-16T06:54:03;9.00;99.90
18777;DHT22;9517;51.174;4.160;2023-04-16T06:56:30;9.00;99.90
18777;DHT22;9517;51.174;4.160;2023-04-16T06:58:58;8.80;99.90
18777;DHT22;9517;51.174;4.160;2023-04-16T07:01:25;8.80;99.90
18777;DHT22;9517;51.174;4.160;2023-04-16T07:03:53;8.80;99.90
18777;DHT22;9517;51.174;4.160;2023-04-16T07:06:21;9.00;99.90
18777;DHT22;9517;51.174;4.160;2023-04-16T07:08:48;8.90;99.90
18777;DHT22;9517;51.174;4.160;2023-04-16T07:11:16;8.90;99.90
18777;DHT22;9517;51.174;4.160;2023-04-16T07:13:44;9.10;99.90
18777;DHT22;9517;51.174;4.160;2023-04-16T07:16:11;9.10;99.90
18777;DHT22;9517;51.174;4.160;2023-04-16T07:18:38;9.00;99.90
18777;DHT22;9517;51.174;4.160;2023-04-16T07:21:05;8.90;99.90
18777;DHT22;9517;51.174;4.160;2023-04-16T07:23:34;9.00;99.90
18777;DHT22;9517;51.174;4.160;2023-04-16T07:26:01;8.90;99.90
18777;DHT22;9517;51.174;4.160;2023-04-16T07:28:28;8.90;99.90
18777;DHT22;9517;51.174;4.160;2023-04-16T07:30:55;9.00;99.90
18777;DHT22;9517;51.174;4.160;2023-04-16T07:33:22;9.00;99.90
18777;DHT22;9517;51.174;4.160;2023-04-16T07:35:49;9.00;99.90
18777;DHT22;9517;51.174;4.160;2023-04-16T07:38:16;9.10;99.90
18777;DHT22;9517;51.174;4.160;2023-04-16T07:40:45;9.20;99.90
18777;DHT22;9517;51.174;4.160;2023-04-16T07:43:13;9.20;99.90
18777;DHT22;9517;51.174;4.160;2023-04-16T07:45:40;9.30;99.90
18777;DHT22;9517;51.174;4.160;2023-04-16T07:48:07;9.20;99.90
18777;DHT22;9517;51.174;4.160;2023-04-16T07:50:35;9.30;99.90
18777;DHT22;9517;51.174;4.160;2023-04-16T07:53:02;9.30;99.90
18777;DHT22;9517;51.174;4.160;2023-04-16T07:55:32;9.40;99.90
18777;DHT22;9517;51.174;4.160;2023-04-16T07:58:00;9.30;99.90
18777;DHT22;9517;51.174;4.160;2023-04-16T08:00:28;9.60;99.90
18777;DHT22;9517;51.174;4.160;2023-04-16T08:02:55;9.60;99.90
18777;DHT22;9517;51.174;4.160;2023-04-16T08:05:22;9.50;99.90
18777;DHT22;9517;51.174;4.160;2023-04-16T08:07:49;9.70;99.90
18777;DHT22;9517;51.174;4.160;2023-04-16T08:10:16;9.60;99.90
18777;DHT22;9517;51.174;4.160;2023-04-16T08:12:44;9.60;99.90
18777;DHT22;9517;51.174;4.160;2023-04-16T08:15:12;9.50;99.90
18777;DHT22;9517;51.174;4.160;2023-04-16T08:17:39;9.80;99.90
18777;DHT22;9517;51.174;4.160;2023-04-16T08:20:07;9.80;99.90
18777;DHT22;9517;51.174;4.160;2023-04-16T08:22:34;10.00;99.90
18777;DHT22;9517;51.174;4.160;2023-04-16T08:25:02;9.90;99.90
18777;DHT22;9517;51.174;4.160;2023-04-16T08:27:30;9.70;99.90
18777;DHT22;9517;51.174;4.160;2023-04-16T08:29:57;9.80;99.90
18777;DHT22;9517;51.174;4.160;2023-04-16T08:32:25;9.90;99.90
18777;DHT22;9517;51.174;4.160;2023-04-16T08:34:52;10.00;99.90
18777;DHT22;9517;51.174;4.160;2023-04-16T08:37:20;10.00;99.90
18777;DHT22;9517;51.174;4.160;2023-04-16T08:39:47;9.90;99.90
18777;DHT22;9517;51.174;4.160;2023-04-16T08:42:22;10.10;99.90
18777;DHT22;9517;51.174;4.160;2023-04-16T08:44:52;9.90;99.90
18777;DHT22;9517;51.174;4.160;2023-04-16T08:47:22;10.00;99.90
18777;DHT22;9517;51.174;4.160;2023-04-16T08:49:54;10.10;99.90
18777;DHT22;9517;51.174;4.160;2023-04-16T08:52:23;10.20;99.90
18777;DHT22;9517;51.174;4.160;2023-04-16T08:54:56;10.10;99.90
18777;DHT22;9517;51.174;4.160;2023-04-16T08:57:36;10.10;99.90
18777;DHT22;9517;51.174;4.160;2023-04-16T09:00:06;10.20;99.90
18777;DHT22;9517;51.174;4.160;2023-04-16T09:02:33;10.00;99.90
18777;DHT22;9517;51.174;4.160;2023-04-16T09:05:04;10.00;99.90
18777;DHT22;9517;51.174;4.160;2023-04-16T09:07:33;10.10;99.90
18777;DHT22;9517;51.174;4.160;2023-04-16T09:10:00;10.00;99.90
18777;DHT22;9517;51.174;4.160;2023-04-16T09:12:29;10.10;99.90
18777;DHT22;9517;51.174;4.160;2023-04-16T09:14:57;10.10;99.90
18777;DHT22;9517;51.174;4.160;2023-04-16T09:17:27;10.30;99.90
18777;DHT22;9517;51.174;4.160;2023-04-16T09:19:54;10.50;99.90
18777;DHT22;9517;51.174;4.160;2023-04-16T09:22:23;10.60;99.90
18777;DHT22;9517;51.174;4.160;2023-04-16T09:24:50;10.40;99.90
18777;DHT22;9517;51.174;4.160;2023-04-16T09:27:17;10.40;99.90
18777;DHT22;9517;51.174;4.160;2023-04-16T09:29:44;10.30;99.90
18777;DHT22;9517;51.174;4.160;2023-04-16T09:32:11;10.30;99.90
18777;DHT22;9517;51.174;4.160;2023-04-16T09:34:59;10.20;99.90
18777;DHT22;9517;51.174;4.160;2023-04-16T09:37:29;9.90;99.90
18777;DHT22;9517;51.174;4.160;2023-04-16T09:39:58;9.80;99.90
18777;DHT22;9517;51.174;4.160;2023-04-16T09:42:27;9.80;99.90
18777;DHT22;9517;51.174;4.160;2023-04-16T09:44:55;10.10;99.90
18777;DHT22;9517;51.174;4.160;2023-04-16T09:47:24;10.20;99.90
18777;DHT22;9517;51.174;4.160;2023-04-16T09:49:51;10.30;99.90
18777;DHT22;9517;51.174;4.160;2023-04-16T09:52:21;10.40;99.90
18777;DHT22;9517;51.174;4.160;2023-04-16T09:54:51;10.40;99.90
18777;DHT22;9517;51.174;4.160;2023-04-16T09:57:19;10.40;99.90
18777;DHT22;9517;51.174;4.160;2023-04-16T09:59:52;10.40;99.90
18777;DHT22;9517;51.174;4.160;2023-04-16T10:02:19;10.20;99.90
18777;DHT22;9517;51.174;4.160;2023-04-16T10:04:48;10.20;99.90
18777;DHT22;9517;51.174;4.160;2023-04-16T10:07:16;10.10;99.90
18777;DHT22;9517;51.174;4.160;2023-04-16T10:09:43;10.00;99.90
18777;DHT22;9517;51.174;4.160;2023-04-16T10:12:12;10.00;99.90
18777;DHT22;9517;51.174;4.160;2023-04-16T10:14:40;10.10;99.90
18777;DHT22;9517;51.174;4.160;2023-04-16T10:17:08;10.20;99.90
18777;DHT22;9517;51.174;4.160;2023-04-16T10:19:35;10.10;99.90
18777;DHT22;9517;51.174;4.160;2023-04-16T10:22:03;10.10;99.90
18777;DHT22;9517;51.174;4.160;2023-04-16T10:24:31;10.30;99.90
18777;DHT22;9517;51.174;4.160;2023-04-16T10:26:59;10.20;99.90
18777;DHT22;9517;51.174;4.160;2023-04-16T10:29:29;10.00;99.90
18777;DHT22;9517;51.174;4.160;2023-04-16T10:31:56;10.10;99.90
18777;DHT22;9517;51.174;4.160;2023-04-16T10:34:24;10.00;99.90
18777;DHT22;9517;51.174;4.160;2023-04-16T10:36:52;10.10;99.90
18777;DHT22;9517;51.174;4.160;2023-04-16T10:39:21;10.00;99.90
18777;DHT22;9517;51.174;4.160;2023-04-16T10:41:49;10.10;99.90
18777;DHT22;9517;51.174;4.160;2023-04-16T10:44:17;10.20;99.90
18777;DHT22;9517;51.174;4.160;2023-04-16T10:46:47;10.20;99.90
18777;DHT22;9517;51.174;4.160;2023-04-16T10:49:16;10.40;99.90
18777;DHT22;9517;51.174;4.160;2023-04-16T10:51:52;10.30;99.90
18777;DHT22;9517;51.174;4.160;2023-04-16T10:54:23;10.40;99.90
18777;DHT22;9517;51.174;4.160;2023-04-16T10:56:52;10.50;99.90
18777;DHT22;9517;51.174;4.160;2023-04-16T10:59:20;10.60;99.90
18777;DHT22;9517;51.174;4.160;2023-04-16T11:01:50;10.70;99.90
18777;DHT22;9517;51.174;4.160;2023-04-16T11:04:28;10.60;99.90
18777;DHT22;9517;51.174;4.160;2023-04-16T11:07:03;10.60;99.90
18777;DHT22;9517;51.174;4.160;2023-04-16T11:09:44;10.60;99.90
18777;DHT22;9517;51.174;4.160;2023-04-16T11:12:13;10.50;99.90
18777;DHT22;9517;51.174;4.160;2023-04-16T11:14:41;10.50;99.90
18777;DHT22;9517;51.174;4.160;2023-04-16T11:17:09;10.60;99.90
18777;DHT22;9517;51.174;4.160;2023-04-16T11:19:36;10.50;99.90
18777;DHT22;9517;51.174;4.160;2023-04-16T11:22:04;10.60;99.90
18777;DHT22;9517;51.174;4.160;2023-04-16T11:24:31;10.40;99.90
18777;DHT22;9517;51.174;4.160;2023-04-16T11:26:58;10.50;99.90
18777;DHT22;9517;51.174;4.160;2023-04-16T11:29:26;10.50;99.90
18777;DHT22;9517;51.174;4.160;2023-04-16T11:31:53;10.50;99.90
18777;DHT22;9517;51.174;4.160;2023-04-16T11:34:22;10.50;99.90
18777;DHT22;9517;51.174;4.160;2023-04-16T11:36:50;10.50;99.90
18777;DHT22;9517;51.174;4.160;2023-04-16T11:39:18;10.40;99.90
18777;DHT22;9517;51.174;4.160;2023-04-16T11:41:46;10.40;99.90
18777;DHT22;9517;51.174;4.160;2023-04-16T11:44:17;10.50;99.90
18777;DHT22;9517;51.174;4.160;2023-04-16T11:46:45;10.50;99.90
18777;DHT22;9517;51.174;4.160;2023-04-16T11:49:12;10.40;99.90
18777;DHT22;9517;51.174;4.160;2023-04-16T11:51:42;10.50;99.90
18777;DHT22;9517;51.174;4.160;2023-04-16T11:54:17;10.60;99.90
18777;DHT22;9517;51.174;4.160;2023-04-16T11:56:46;10.90;99.90
18777;DHT22;9517;51.174;4.160;2023-04-16T11:59:15;10.80;99.90
18777;DHT22;9517;51.174;4.160;2023-04-16T12:01:45;11.00;99.90
18777;DHT22;9517;51.174;4.160;2023-04-16T12:04:13;11.20;99.90
18777;DHT22;9517;51.174;4.160;2023-04-16T12:07:08;11.20;99.90
18777;DHT22;9517;51.174;4.160;2023-04-16T12:09:36;11.30;99.90
18777;DHT22;9517;51.174;4.160;2023-04-16T12:12:04;11.30;99.90
18777;DHT22;9517;51.174;4.160;2023-04-16T12:14:31;11.10;99.90
18777;DHT22;9517;51.174;4.160;2023-04-16T12:17:17;11.10;99.90
18777;DHT22;9517;51.174;4.160;2023-04-16T12:19:50;11.20;99.90
18777;DHT22;9517;51.174;4.160;2023-04-16T12:22:26;11.10;99.90
18777;DHT22;9517;51.174;4.160;2023-04-16T12:24:56;11.10;99.90
18777;DHT22;9517;51.174;4.160;2023-04-16T12:27:24;11.20;99.90
18777;DHT22;9517;51.174;4.160;2023-04-16T12:30:06;11.30;99.90
18777;DHT22;9517;51.174;4.160;2023-04-16T12:32:34;11.30;99.90
18777;DHT22;9517;51.174;4.160;2023-04-16T12:35:01;11.30;99.90
18777;DHT22;9517;51.174;4.160;2023-04-16T12:37:30;11.10;99.90
18777;DHT22;9517;51.174;4.160;2023-04-16T12:39:57;11.10;99.90
18777;DHT22;9517;51.174;4.160;2023-04-16T12:42:24;11.10;99.90
18777;DHT22;9517;51.174;4.160;2023-04-16T12:44:51;11.00;99.90
18777;DHT22;9517;51.174;4.160;2023-04-16T12:47:18;11.20;99.90
18777;DHT22;9517;51.174;4.160;2023-04-16T12:49:45;11.30;99.90
18777;DHT22;9517;51.174;4.160;2023-04-16T12:52:13;11.40;99.90
18777;DHT22;9517;51.174;4.160;2023-04-16T12:54:41;11.40;99.90
18777;DHT22;9517;51.174;4.160;2023-04-16T12:57:08;11.60;99.90
18777;DHT22;9517;51.174;4.160;2023-04-16T12:59:36;11.80;99.90
18777;DHT22;9517;51.174;4.160;2023-04-16T13:02:03;12.00;99.90
18777;DHT22;9517;51.174;4.160;2023-04-16T13:04:30;11.60;99.90
18777;DHT22;9517;51.174;4.160;2023-04-16T13:06:57;11.80;99.90
18777;DHT22;9517;51.174;4.160;2023-04-16T13:09:25;12.10;99.90
18777;DHT22;9517;51.174;4.160;2023-04-16T13:11:54;12.00;99.90
18777;DHT22;9517;51.174;4.160;2023-04-16T13:14:21;12.00;99.90
18777;DHT22;9517;51.174;4.160;2023-04-16T13:16:48;12.30;99.90
18777;DHT22;9517;51.174;4.160;2023-04-16T13:19:15;12.30;99.90
18777;DHT22;9517;51.174;4.160;2023-04-16T13:21:43;12.30;99.90
18777;DHT22;9517;51.174;4.160;2023-04-16T13:24:10;12.50;99.90
18777;DHT22;9517;51.174;4.160;2023-04-16T13:26:37;12.50;99.90
18777;DHT22;9517;51.174;4.160;2023-04-16T13:29:06;12.60;99.90
18777;DHT22;9517;51.174;4.160;2023-04-16T13:31:33;12.40;99.90
18777;DHT22;9517;51.174;4.160;2023-04-16T13:34:00;12.70;99.90
18777;DHT22;9517;51.174;4.160;2023-04-16T13:36:28;12.60;99.90
18777;DHT22;9517;51.174;4.160;2023-04-16T13:38:56;12.60;99.90
18777;DHT22;9517;51.174;4.160;2023-04-16T13:41:24;12.60;99.90
18777;DHT22;9517;51.174;4.160;2023-04-16T13:43:52;12.20;99.90
18777;DHT22;9517;51.174;4.160;2023-04-16T13:46:21;12.30;99.90
18777;DHT22;9517;51.174;4.160;2023-04-16T13:48:48;12.10;99.90
18777;DHT22;9517;51.174;4.160;2023-04-16T13:51:15;12.40;99.90
18777;DHT22;9517;51.174;4.160;2023-04-16T13:53:42;12.60;99.90
18777;DHT22;9517;51.174;4.160;2023-04-16T13:56:09;12.70;99.90
18777;DHT22;9517;51.174;4.160;2023-04-16T13:58:37;12.60;99.90
18777;DHT22;9517;51.174;4.160;2023-04-16T14:01:04;12.90;99.90
18777;DHT22;9517;51.174;4.160;2023-04-16T14:03:32;13.00;99.90
18777;DHT22;9517;51.174;4.160;2023-04-16T14:06:02;12.90;99.90
18777;DHT22;9517;51.174;4.160;2023-04-16T14:08:29;12.90;99.90
18777;DHT22;9517;51.174;4.160;2023-04-16T14:10:56;12.60;99.90
18777;DHT22;9517;51.174;4.160;2023-04-16T14:13:24;12.40;99.90
18777;DHT22;9517;51.174;4.160;2023-04-16T14:15:52;12.50;99.90
18777;DHT22;9517;51.174;4.160;2023-04-16T14:18:20;12.40;99.90
18777;DHT22;9517;51.174;4.160;2023-04-16T14:20:48;12.40;99.90
18777;DHT22;9517;51.174;4.160;2023-04-16T14:23:15;12.40;99.90
18777;DHT22;9517;51.174;4.160;2023-04-16T14:25:42;12.20;99.90
18777;DHT22;9517;51.174;4.160;2023-04-16T14:28:10;12.00;99.90
18777;DHT22;9517;51.174;4.160;2023-04-16T14:30:37;12.10;99.90
18777;DHT22;9517;51.174;4.160;2023-04-16T14:33:04;12.10;99.90
18777;DHT22;9517;51.174;4.160;2023-04-16T14:35:31;12.30;99.90
18777;DHT22;9517;51.174;4.160;2023-04-16T14:38:01;11.90;99.90
18777;DHT22;9517;51.174;4.160;2023-04-16T14:40:28;11.80;99.90
18777;DHT22;9517;51.174;4.160;2023-04-16T14:42:55;12.00;99.90
18777;DHT22;9517;51.174;4.160;2023-04-16T14:45:23;12.00;99.90
18777;DHT22;9517;51.174;4.160;2023-04-16T14:47:53;12.30;99.90
18777;DHT22;9517;51.174;4.160;2023-04-16T14:50:20;12.20;99.90
18777;DHT22;9517;51.174;4.160;2023-04-16T14:52:48;12.20;99.90
18777;DHT22;9517;51.174;4.160;2023-04-16T14:55:17;12.00;99.90
18777;DHT22;9517;51.174;4.160;2023-04-16T14:57:45;11.90;99.90
18777;DHT22;9517;51.174;4.160;2023-04-16T15:00:13;12.00;99.90
18777;DHT22;9517;51.174;4.160;2023-04-16T15:02:43;12.10;99.90
18777;DHT22;9517;51.174;4.160;2023-04-16T15:05:10;12.20;99.90
18777;DHT22;9517;51.174;4.160;2023-04-16T15:07:37;12.40;99.90
18777;DHT22;9517;51.174;4.160;2023-04-16T15:10:06;12.30;99.90
18777;DHT22;9517;51.174;4.160;2023-04-16T15:12:35;12.40;99.90
18777;DHT22;9517;51.174;4.160;2023-04-16T15:15:02;12.40;99.90
18777;DHT22;9517;51.174;4.160;2023-04-16T15:17:29;12.20;99.90
18777;DHT22;9517;51.174;4.160;2023-04-16T15:19:56;12.00;99.90
18777;DHT22;9517;51.174;4.160;2023-04-16T15:22:23;12.00;99.90
18777;DHT22;9517;51.174;4.160;2023-04-16T15:24:50;12.10;99.90
18777;DHT22;9517;51.174;4.160;2023-04-16T15:27:18;12.20;99.90
18777;DHT22;9517;51.174;4.160;2023-04-16T15:29:47;12.20;99.90
18777;DHT22;9517;51.174;4.160;2023-04-16T15:32:14;12.20;99.90
18777;DHT22;9517;51.174;4.160;2023-04-16T15:34:41;12.10;99.90
18777;DHT22;9517;51.174;4.160;2023-04-16T15:37:16;12.10;99.90
18777;DHT22;9517;51.174;4.160;2023-04-16T15:39:43;12.00;99.90
18777;DHT22;9517;51.174;4.160;2023-04-16T15:42:10;12.20;99.90
18777;DHT22;9517;51.174;4.160;2023-04-16T15:44:37;12.10;99.90
18777;DHT22;9517;51.174;4.160;2023-04-16T15:47:06;12.10;99.90
18777;DHT22;9517;51.174;4.160;2023-04-16T15:49:33;12.30;99.90
18777;DHT22;9517;51.174;4.160;2023-04-16T15:52:01;12.20;99.90
18777;DHT22;9517;51.174;4.160;2023-04-16T15:54:28;12.30;99.90
18777;DHT22;9517;51.174;4.160;2023-04-16T15:56:56;12.20;99.90
18777;DHT22;9517;51.174;4.160;2023-04-16T15:59:23;12.00;99.90